sensor_id;sensor_type;location;lat;lon;timestamp;P1;durP1;ratioP1;P2;durP2;ratioP2
29816;SDS011;16805;52.956;5.906;2023-07-20T00:01:22;0.82;;;0.75;;
29816;SDS011;16805;52.956;5.906;2023-07-20T00:03:48;0.73;;;0.70;;
29816;SDS011;16805;52.956;5.906;2023-07-20T00:06:20;1.20;;;0.82;;
29816;SDS011;16805;52.956;5.906;2023-07-20T00:08:49;0.80;;;0.70;;
29816;SDS011;16805;52.956;5.906;2023-07-20T00:11:15;1.65;;;0.90;;
29816;SDS011;16805;52.956;5.906;2023-07-20T00:13:41;0.93;;;0.90;;
29816;SDS011;16805;52.956;5.906;2023-07-20T00:16:07;0.75;;;0.75;;
29816;SDS011;16805;52.956;5.906;2023-07-20T00:18:32;0.80;;;0.70;;
29816;SDS011;16805;52.956;5.906;2023-07-20T00:20:58;0.80;;;0.80;;
29816;SDS011;16805;52.956;5.906;2023-07-20T00:23:27;0.70;;;0.70;;
29816;SDS011;16805;52.956;5.906;2023-07-20T00:25:53;1.13;;;0.80;;
29816;SDS011;16805;52.956;5.906;2023-07-20T00:28:19;0.73;;;0.73;;
29816;SDS011;16805;52.956;5.906;2023-07-20T00:30:45;1.20;;;0.80;;
29816;SDS011;16805;52.956;5.906;2023-07-20T00:33:11;0.82;;;0.70;;
29816;SDS011;16805;52.956;5.906;2023-07-20T00:35:38;1.00;;;0.90;;
29816;SDS011;16805;52.956;5.906;2023-07-20T00:38:04;1.05;;;0.80;;
29816;SDS011;16805;52.956;5.906;2023-07-20T00:40:39;1.20;;;0.90;;
29816;SDS011;16805;52.956;5.906;2023-07-20T00:43:06;0.70;;;0.70;;
29816;SDS011;16805;52.956;5.906;2023-07-20T00:45:32;1.20;;;1.10;;
29816;SDS011;16805;52.956;5.906;2023-07-20T00:47:59;2.53;;;0.85;;
29816;SDS011;16805;52.956;5.906;2023-07-20T00:50:27;0.88;;;0.85;;
29816;SDS011;16805;52.956;5.906;2023-07-20T00:52:56;1.60;;;1.05;;
29816;SDS011;16805;52.956;5.906;2023-07-20T00:55:23;0.65;;;0.65;;
29816;SDS011;16805;52.956;5.906;2023-07-20T00:57:50;3.92;;;0.95;;
29816;SDS011;16805;52.956;5.906;2023-07-20T01:00:16;2.15;;;1.13;;
29816;SDS011;16805;52.956;5.906;2023-07-20T01:02:42;1.30;;;1.08;;
29816;SDS011;16805;52.956;5.906;2023-07-20T01:05:08;0.82;;;0.80;;
29816;SDS011;16805;52.956;5.906;2023-07-20T01:07:35;1.10;;;0.90;;
29816;SDS011;16805;52.956;5.906;2023-07-20T01:10:27;1.40;;;0.98;;
29816;SDS011;16805;52.956;5.906;2023-07-20T01:13:03;1.25;;;0.80;;
29816;SDS011;16805;52.956;5.906;2023-07-20T01:15:33;1.08;;;0.90;;
29816;SDS011;16805;52.956;5.906;2023-07-20T01:17:59;1.33;;;0.88;;
29816;SDS011;16805;52.956;5.906;2023-07-20T01:20:26;0.80;;;0.80;;
29816;SDS011;16805;52.956;5.906;2023-07-20T01:25:58;2.03;;;0.98;;
29816;SDS011;16805;52.956;5.906;2023-07-20T01:29:01;1.95;;;0.93;;
29816;SDS011;16805;52.956;5.906;2023-07-20T01:31:51;2.05;;;1.00;;
29816;SDS011;16805;52.956;5.906;2023-07-20T01:34:19;1.83;;;1.17;;
29816;SDS011;16805;52.956;5.906;2023-07-20T01:36:47;1.08;;;0.98;;
29816;SDS011;16805;52.956;5.906;2023-07-20T01:39:15;2.58;;;1.10;;
29816;SDS011;16805;52.956;5.906;2023-07-20T01:41:41;1.30;;;0.98;;
29816;SDS011;16805;52.956;5.906;2023-07-20T01:44:08;1.08;;;0.98;;
29816;SDS011;16805;52.956;5.906;2023-07-20T01:46:34;1.70;;;1.00;;
29816;SDS011;16805;52.956;5.906;2023-07-20T01:48:59;1.58;;;1.00;;
29816;SDS011;16805;52.956;5.906;2023-07-20T01:51:25;1.10;;;1.00;;
29816;SDS011;16805;52.956;5.906;2023-07-20T01:53:51;1.67;;;1.00;;
29816;SDS011;16805;52.956;5.906;2023-07-20T01:56:16;1.17;;;0.90;;
29816;SDS011;16805;52.956;5.906;2023-07-20T01:58:42;1.17;;;0.90;;
29816;SDS011;16805;52.956;5.906;2023-07-20T02:01:07;1.08;;;0.80;;
29816;SDS011;16805;52.956;5.906;2023-07-20T02:03:33;0.80;;;0.80;;
29816;SDS011;16805;52.956;5.906;2023-07-20T02:05:59;1.85;;;0.90;;
29816;SDS011;16805;52.956;5.906;2023-07-20T02:08:24;1.30;;;1.20;;
29816;SDS011;16805;52.956;5.906;2023-07-20T02:10:50;1.73;;;0.80;;
29816;SDS011;16805;52.956;5.906;2023-07-20T02:13:17;0.90;;;0.80;;
29816;SDS011;16805;52.956;5.906;2023-07-20T02:15:42;1.25;;;0.95;;
29816;SDS011;16805;52.956;5.906;2023-07-20T02:18:08;1.02;;;0.90;;
29816;SDS011;16805;52.956;5.906;2023-07-20T02:20:34;1.10;;;1.00;;
29816;SDS011;16805;52.956;5.906;2023-07-20T02:23:00;1.13;;;1.02;;
29816;SDS011;16805;52.956;5.906;2023-07-20T02:25:26;1.40;;;0.70;;
29816;SDS011;16805;52.956;5.906;2023-07-20T02:27:52;1.02;;;0.93;;
29816;SDS011;16805;52.956;5.906;2023-07-20T02:30:17;0.70;;;0.70;;
29816;SDS011;16805;52.956;5.906;2023-07-20T02:32:43;0.95;;;0.60;;
29816;SDS011;16805;52.956;5.906;2023-07-20T02:35:13;2.22;;;0.90;;
29816;SDS011;16805;52.956;5.906;2023-07-20T02:37:42;1.30;;;0.90;;
29816;SDS011;16805;52.956;5.906;2023-07-20T02:40:07;1.27;;;0.70;;
29816;SDS011;16805;52.956;5.906;2023-07-20T02:42:34;1.42;;;0.80;;
29816;SDS011;16805;52.956;5.906;2023-07-20T02:45:01;0.85;;;0.60;;
29816;SDS011;16805;52.956;5.906;2023-07-20T02:47:28;1.05;;;0.80;;
29816;SDS011;16805;52.956;5.906;2023-07-20T02:49:54;0.82;;;0.82;;
29816;SDS011;16805;52.956;5.906;2023-07-20T02:52:20;0.80;;;0.80;;
29816;SDS011;16805;52.956;5.906;2023-07-20T02:54:45;3.38;;;0.88;;
29816;SDS011;16805;52.956;5.906;2023-07-20T02:57:11;0.98;;;0.80;;
29816;SDS011;16805;52.956;5.906;2023-07-20T02:59:37;1.52;;;0.90;;
29816;SDS011;16805;52.956;5.906;2023-07-20T03:02:02;1.30;;;0.80;;
29816;SDS011;16805;52.956;5.906;2023-07-20T03:04:28;0.93;;;0.90;;
29816;SDS011;16805;52.956;5.906;2023-07-20T03:06:54;0.90;;;0.85;;
29816;SDS011;16805;52.956;5.906;2023-07-20T03:09:19;0.98;;;0.95;;
29816;SDS011;16805;52.956;5.906;2023-07-20T03:11:45;0.70;;;0.70;;
29816;SDS011;16805;52.956;5.906;2023-07-20T03:14:11;0.80;;;0.80;;
29816;SDS011;16805;52.956;5.906;2023-07-20T03:16:36;0.90;;;0.90;;
29816;SDS011;16805;52.956;5.906;2023-07-20T03:19:02;1.65;;;0.70;;
29816;SDS011;16805;52.956;5.906;2023-07-20T03:21:28;1.10;;;0.82;;
29816;SDS011;16805;52.956;5.906;2023-07-20T03:23:54;1.65;;;0.90;;
29816;SDS011;16805;52.956;5.906;2023-07-20T03:26:20;2.55;;;0.85;;
29816;SDS011;16805;52.956;5.906;2023-07-20T03:28:46;1.02;;;1.00;;
29816;SDS011;16805;52.956;5.906;2023-07-20T03:31:12;1.35;;;0.82;;
29816;SDS011;16805;52.956;5.906;2023-07-20T03:33:37;1.08;;;0.80;;
29816;SDS011;16805;52.956;5.906;2023-07-20T03:36:03;1.27;;;0.90;;
29816;SDS011;16805;52.956;5.906;2023-07-20T03:38:30;1.13;;;1.02;;
29816;SDS011;16805;52.956;5.906;2023-07-20T03:40:59;1.20;;;0.98;;
29816;SDS011;16805;52.956;5.906;2023-07-20T03:43:26;1.10;;;1.00;;
29816;SDS011;16805;52.956;5.906;2023-07-20T03:45:53;1.80;;;0.98;;
29816;SDS011;16805;52.956;5.906;2023-07-20T03:48:20;1.23;;;1.00;;
29816;SDS011;16805;52.956;5.906;2023-07-20T03:50:47;1.10;;;1.00;;
29816;SDS011;16805;52.956;5.906;2023-07-20T03:53:14;1.05;;;0.95;;
29816;SDS011;16805;52.956;5.906;2023-07-20T03:55:41;2.90;;;1.30;;
29816;SDS011;16805;52.956;5.906;2023-07-20T03:58:09;0.90;;;0.88;;
29816;SDS011;16805;52.956;5.906;2023-07-20T04:00:35;1.10;;;1.00;;
29816;SDS011;16805;52.956;5.906;2023-07-20T04:03:00;0.88;;;0.88;;
29816;SDS011;16805;52.956;5.906;2023-07-20T04:05:26;1.40;;;1.15;;
29816;SDS011;16805;52.956;5.906;2023-07-20T04:07:52;1.10;;;1.00;;
29816;SDS011;16805;52.956;5.906;2023-07-20T04:10:18;1.40;;;1.23;;
29816;SDS011;16805;52.956;5.906;2023-07-20T04:12:44;1.05;;;0.98;;
29816;SDS011;16805;52.956;5.906;2023-07-20T04:15:12;1.95;;;1.33;;
29816;SDS011;16805;52.956;5.906;2023-07-20T04:17:38;1.48;;;1.17;;
29816;SDS011;16805;52.956;5.906;2023-07-20T04:20:04;1.30;;;1.10;;
29816;SDS011;16805;52.956;5.906;2023-07-20T04:22:31;1.90;;;1.35;;
29816;SDS011;16805;52.956;5.906;2023-07-20T04:24:57;1.48;;;1.20;;
29816;SDS011;16805;52.956;5.906;2023-07-20T04:27:22;2.95;;;1.20;;
29816;SDS011;16805;52.956;5.906;2023-07-20T04:29:48;0.90;;;0.90;;
29816;SDS011;16805;52.956;5.906;2023-07-20T04:32:14;0.90;;;0.85;;
29816;SDS011;16805;52.956;5.906;2023-07-20T04:34:39;1.02;;;0.90;;
29816;SDS011;16805;52.956;5.906;2023-07-20T04:37:05;1.50;;;0.95;;
29816;SDS011;16805;52.956;5.906;2023-07-20T04:39:31;1.13;;;1.02;;
29816;SDS011;16805;52.956;5.906;2023-07-20T04:41:57;0.90;;;0.80;;
29816;SDS011;16805;52.956;5.906;2023-07-20T04:44:22;1.30;;;1.00;;
29816;SDS011;16805;52.956;5.906;2023-07-20T04:46:48;0.80;;;0.80;;
29816;SDS011;16805;52.956;5.906;2023-07-20T04:49:14;1.75;;;1.00;;
29816;SDS011;16805;52.956;5.906;2023-07-20T04:51:40;0.95;;;0.80;;
29816;SDS011;16805;52.956;5.906;2023-07-20T04:54:05;0.98;;;0.88;;
29816;SDS011;16805;52.956;5.906;2023-07-20T04:56:31;1.00;;;0.85;;
29816;SDS011;16805;52.956;5.906;2023-07-20T04:58:58;1.38;;;1.08;;
29816;SDS011;16805;52.956;5.906;2023-07-20T05:01:24;1.95;;;0.95;;
29816;SDS011;16805;52.956;5.906;2023-07-20T05:03:49;1.55;;;0.80;;
29816;SDS011;16805;52.956;5.906;2023-07-20T05:06:15;0.75;;;0.75;;
29816;SDS011;16805;52.956;5.906;2023-07-20T05:08:41;1.90;;;0.88;;
29816;SDS011;16805;52.956;5.906;2023-07-20T05:11:07;0.80;;;0.80;;
29816;SDS011;16805;52.956;5.906;2023-07-20T05:13:33;3.08;;;0.93;;
29816;SDS011;16805;52.956;5.906;2023-07-20T05:15:58;1.15;;;0.75;;
29816;SDS011;16805;52.956;5.906;2023-07-20T05:18:24;1.15;;;0.90;;
29816;SDS011;16805;52.956;5.906;2023-07-20T05:20:50;0.90;;;0.80;;
29816;SDS011;16805;52.956;5.906;2023-07-20T05:23:19;1.63;;;0.88;;
29816;SDS011;16805;52.956;5.906;2023-07-20T05:25:45;0.98;;;0.88;;
29816;SDS011;16805;52.956;5.906;2023-07-20T05:28:11;0.70;;;0.65;;
29816;SDS011;16805;52.956;5.906;2023-07-20T05:30:37;0.50;;;0.50;;
29816;SDS011;16805;52.956;5.906;2023-07-20T05:33:03;0.80;;;0.80;;
29816;SDS011;16805;52.956;5.906;2023-07-20T05:35:28;1.08;;;0.60;;
29816;SDS011;16805;52.956;5.906;2023-07-20T05:37:54;1.35;;;0.65;;
29816;SDS011;16805;52.956;5.906;2023-07-20T05:40:20;0.82;;;0.80;;
29816;SDS011;16805;52.956;5.906;2023-07-20T05:42:46;0.73;;;0.70;;
29816;SDS011;16805;52.956;5.906;2023-07-20T05:45:17;0.60;;;0.60;;
29816;SDS011;16805;52.956;5.906;2023-07-20T05:47:43;0.50;;;0.50;;
29816;SDS011;16805;52.956;5.906;2023-07-20T05:50:09;2.42;;;0.57;;
29816;SDS011;16805;52.956;5.906;2023-07-20T05:52:35;0.65;;;0.65;;
29816;SDS011;16805;52.956;5.906;2023-07-20T05:55:04;1.65;;;0.60;;
29816;SDS011;16805;52.956;5.906;2023-07-20T05:57:30;3.35;;;0.70;;
29816;SDS011;16805;52.956;5.906;2023-07-20T05:59:56;0.38;;;0.20;;
29816;SDS011;16805;52.956;5.906;2023-07-20T06:02:21;0.85;;;0.43;;
29816;SDS011;16805;52.956;5.906;2023-07-20T06:04:47;0.40;;;0.40;;
29816;SDS011;16805;52.956;5.906;2023-07-20T06:07:13;2.13;;;0.50;;
29816;SDS011;16805;52.956;5.906;2023-07-20T06:09:39;1.58;;;0.60;;
29816;SDS011;16805;52.956;5.906;2023-07-20T06:12:05;0.95;;;0.50;;
29816;SDS011;16805;52.956;5.906;2023-07-20T06:14:31;1.42;;;0.40;;
29816;SDS011;16805;52.956;5.906;2023-07-20T06:16:56;0.43;;;0.40;;
29816;SDS011;16805;52.956;5.906;2023-07-20T06:19:23;0.40;;;0.30;;
29816;SDS011;16805;52.956;5.906;2023-07-20T06:21:48;0.35;;;0.30;;
29816;SDS011;16805;52.956;5.906;2023-07-20T06:24:17;0.50;;;0.45;;
29816;SDS011;16805;52.956;5.906;2023-07-20T06:26:43;0.30;;;0.30;;
29816;SDS011;16805;52.956;5.906;2023-07-20T06:29:09;1.20;;;0.60;;
29816;SDS011;16805;52.956;5.906;2023-07-20T06:31:35;1.63;;;0.40;;
29816;SDS011;16805;52.956;5.906;2023-07-20T06:34:02;1.70;;;0.52;;
29816;SDS011;16805;52.956;5.906;2023-07-20T06:36:28;0.40;;;0.40;;
29816;SDS011;16805;52.956;5.906;2023-07-20T06:38:54;1.10;;;0.50;;
29816;SDS011;16805;52.956;5.906;2023-07-20T06:41:21;0.50;;;0.50;;
29816;SDS011;16805;52.956;5.906;2023-07-20T06:43:47;0.88;;;0.50;;
29816;SDS011;16805;52.956;5.906;2023-07-20T06:46:12;1.20;;;0.50;;
29816;SDS011;16805;52.956;5.906;2023-07-20T06:48:39;0.20;;;0.20;;
29816;SDS011;16805;52.956;5.906;2023-07-20T06:51:04;2.30;;;0.52;;
29816;SDS011;16805;52.956;5.906;2023-07-20T06:53:30;0.60;;;0.40;;
29816;SDS011;16805;52.956;5.906;2023-07-20T06:55:56;0.40;;;0.40;;
29816;SDS011;16805;52.956;5.906;2023-07-20T06:58:23;0.63;;;0.30;;
29816;SDS011;16805;52.956;5.906;2023-07-20T07:00:49;1.52;;;0.50;;
29816;SDS011;16805;52.956;5.906;2023-07-20T07:03:15;2.17;;;0.68;;
29816;SDS011;16805;52.956;5.906;2023-07-20T07:05:41;2.22;;;0.77;;
29816;SDS011;16805;52.956;5.906;2023-07-20T07:08:06;1.63;;;0.50;;
29816;SDS011;16805;52.956;5.906;2023-07-20T07:10:33;0.88;;;0.30;;
29816;SDS011;16805;52.956;5.906;2023-07-20T07:13:00;1.55;;;0.30;;
29816;SDS011;16805;52.956;5.906;2023-07-20T07:15:26;1.30;;;0.30;;
29816;SDS011;16805;52.956;5.906;2023-07-20T07:17:52;1.75;;;0.40;;
29816;SDS011;16805;52.956;5.906;2023-07-20T07:20:18;0.35;;;0.20;;
29816;SDS011;16805;52.956;5.906;2023-07-20T07:22:44;1.95;;;0.22;;
29816;SDS011;16805;52.956;5.906;2023-07-20T07:25:10;0.85;;;0.30;;
29816;SDS011;16805;52.956;5.906;2023-07-20T07:27:36;1.48;;;0.40;;
29816;SDS011;16805;52.956;5.906;2023-07-20T07:30:02;0.85;;;0.40;;
29816;SDS011;16805;52.956;5.906;2023-07-20T07:32:28;0.55;;;0.40;;
29816;SDS011;16805;52.956;5.906;2023-07-20T07:34:54;1.65;;;0.50;;
29816;SDS011;16805;52.956;5.906;2023-07-20T07:37:20;0.88;;;0.40;;
29816;SDS011;16805;52.956;5.906;2023-07-20T07:39:46;3.03;;;0.43;;
29816;SDS011;16805;52.956;5.906;2023-07-20T07:42:12;0.30;;;0.30;;
29816;SDS011;16805;52.956;5.906;2023-07-20T07:44:38;0.95;;;0.30;;
29816;SDS011;16805;52.956;5.906;2023-07-20T07:47:04;0.50;;;0.30;;
29816;SDS011;16805;52.956;5.906;2023-07-20T07:49:29;2.08;;;0.50;;
29816;SDS011;16805;52.956;5.906;2023-07-20T07:51:56;1.33;;;0.30;;
29816;SDS011;16805;52.956;5.906;2023-07-20T07:54:22;3.92;;;0.55;;
29816;SDS011;16805;52.956;5.906;2023-07-20T07:56:47;0.30;;;0.30;;
29816;SDS011;16805;52.956;5.906;2023-07-20T07:59:13;0.28;;;0.28;;
29816;SDS011;16805;52.956;5.906;2023-07-20T08:01:39;0.43;;;0.20;;
29816;SDS011;16805;52.956;5.906;2023-07-20T08:04:05;0.40;;;0.40;;
29816;SDS011;16805;52.956;5.906;2023-07-20T08:06:30;0.85;;;0.30;;
29816;SDS011;16805;52.956;5.906;2023-07-20T08:08:57;0.40;;;0.10;;
29816;SDS011;16805;52.956;5.906;2023-07-20T08:11:23;3.47;;;0.43;;
29816;SDS011;16805;52.956;5.906;2023-07-20T08:13:49;0.22;;;0.22;;
29816;SDS011;16805;52.956;5.906;2023-07-20T08:16:15;1.25;;;0.30;;
29816;SDS011;16805;52.956;5.906;2023-07-20T08:18:40;0.70;;;0.40;;
29816;SDS011;16805;52.956;5.906;2023-07-20T08:21:06;1.95;;;0.38;;
29816;SDS011;16805;52.956;5.906;2023-07-20T08:23:32;1.08;;;0.30;;
29816;SDS011;16805;52.956;5.906;2023-07-20T08:25:58;0.55;;;0.28;;
29816;SDS011;16805;52.956;5.906;2023-07-20T08:28:23;0.20;;;0.20;;
29816;SDS011;16805;52.956;5.906;2023-07-20T08:30:49;2.40;;;1.00;;
29816;SDS011;16805;52.956;5.906;2023-07-20T08:33:16;0.22;;;0.22;;
29816;SDS011;16805;52.956;5.906;2023-07-20T08:35:45;1.35;;;0.45;;
29816;SDS011;16805;52.956;5.906;2023-07-20T08:38:12;2.03;;;0.70;;
29816;SDS011;16805;52.956;5.906;2023-07-20T08:40:41;0.25;;;0.20;;
29816;SDS011;16805;52.956;5.906;2023-07-20T08:43:10;0.60;;;0.40;;
29816;SDS011;16805;52.956;5.906;2023-07-20T08:45:38;1.30;;;0.40;;
29816;SDS011;16805;52.956;5.906;2023-07-20T08:48:05;0.98;;;0.28;;
29816;SDS011;16805;52.956;5.906;2023-07-20T08:50:31;0.38;;;0.38;;
29816;SDS011;16805;52.956;5.906;2023-07-20T08:52:58;1.45;;;0.50;;
29816;SDS011;16805;52.956;5.906;2023-07-20T08:55:28;0.57;;;0.40;;
29816;SDS011;16805;52.956;5.906;2023-07-20T08:57:55;2.75;;;0.70;;
29816;SDS011;16805;52.956;5.906;2023-07-20T09:00:22;0.50;;;0.30;;
29816;SDS011;16805;52.956;5.906;2023-07-20T09:02:50;1.88;;;0.45;;
29816;SDS011;16805;52.956;5.906;2023-07-20T09:05:17;2.45;;;0.50;;
29816;SDS011;16805;52.956;5.906;2023-07-20T09:07:43;0.93;;;0.40;;
29816;SDS011;16805;52.956;5.906;2023-07-20T09:10:09;1.52;;;0.60;;
29816;SDS011;16805;52.956;5.906;2023-07-20T09:12:39;1.85;;;0.60;;
29816;SDS011;16805;52.956;5.906;2023-07-20T09:15:10;1.00;;;0.43;;
29816;SDS011;16805;52.956;5.906;2023-07-20T09:17:36;0.30;;;0.30;;
29816;SDS011;16805;52.956;5.906;2023-07-20T09:20:06;0.47;;;0.40;;
29816;SDS011;16805;52.956;5.906;2023-07-20T09:22:34;0.30;;;0.30;;
29816;SDS011;16805;52.956;5.906;2023-07-20T09:25:00;2.60;;;0.40;;
29816;SDS011;16805;52.956;5.906;2023-07-20T09:27:35;0.63;;;0.50;;
29816;SDS011;16805;52.956;5.906;2023-07-20T09:30:02;0.85;;;0.50;;
29816;SDS011;16805;52.956;5.906;2023-07-20T09:32:29;1.38;;;0.60;;
29816;SDS011;16805;52.956;5.906;2023-07-20T09:34:54;1.10;;;0.50;;
29816;SDS011;16805;52.956;5.906;2023-07-20T09:37:20;1.02;;;0.40;;
29816;SDS011;16805;52.956;5.906;2023-07-20T09:39:47;0.90;;;0.40;;
29816;SDS011;16805;52.956;5.906;2023-07-20T09:42:14;1.05;;;0.63;;
29816;SDS011;16805;52.956;5.906;2023-07-20T09:44:43;0.50;;;0.50;;
29816;SDS011;16805;52.956;5.906;2023-07-20T09:47:09;0.57;;;0.47;;
29816;SDS011;16805;52.956;5.906;2023-07-20T09:49:41;1.17;;;0.45;;
29816;SDS011;16805;52.956;5.906;2023-07-20T09:52:10;0.60;;;0.30;;
29816;SDS011;16805;52.956;5.906;2023-07-20T09:54:38;0.65;;;0.30;;
29816;SDS011;16805;52.956;5.906;2023-07-20T09:57:08;0.70;;;0.40;;
29816;SDS011;16805;52.956;5.906;2023-07-20T09:59:34;0.85;;;0.55;;
29816;SDS011;16805;52.956;5.906;2023-07-20T10:02:00;0.77;;;0.35;;
29816;SDS011;16805;52.956;5.906;2023-07-20T10:04:30;0.65;;;0.50;;
29816;SDS011;16805;52.956;5.906;2023-07-20T10:06:57;0.90;;;0.40;;
29816;SDS011;16805;52.956;5.906;2023-07-20T10:09:24;0.30;;;0.30;;
29816;SDS011;16805;52.956;5.906;2023-07-20T10:11:51;0.75;;;0.40;;
29816;SDS011;16805;52.956;5.906;2023-07-20T10:14:22;0.82;;;0.40;;
29816;SDS011;16805;52.956;5.906;2023-07-20T10:16:51;0.73;;;0.45;;
29816;SDS011;16805;52.956;5.906;2023-07-20T10:19:24;1.15;;;0.20;;
29816;SDS011;16805;52.956;5.906;2023-07-20T10:22:07;0.77;;;0.30;;
29816;SDS011;16805;52.956;5.906;2023-07-20T10:24:39;0.30;;;0.30;;
29816;SDS011;16805;52.956;5.906;2023-07-20T10:27:10;1.05;;;0.40;;
29816;SDS011;16805;52.956;5.906;2023-07-20T10:29:36;0.50;;;0.50;;
29816;SDS011;16805;52.956;5.906;2023-07-20T10:32:02;1.00;;;0.40;;
29816;SDS011;16805;52.956;5.906;2023-07-20T10:34:28;2.45;;;0.40;;
29816;SDS011;16805;52.956;5.906;2023-07-20T10:36:54;0.43;;;0.38;;
29816;SDS011;16805;52.956;5.906;2023-07-20T10:39:27;0.60;;;0.40;;
29816;SDS011;16805;52.956;5.906;2023-07-20T10:42:09;1.08;;;0.35;;
29816;SDS011;16805;52.956;5.906;2023-07-20T10:44:41;0.85;;;0.57;;
29816;SDS011;16805;52.956;5.906;2023-07-20T10:47:09;0.68;;;0.30;;
29816;SDS011;16805;52.956;5.906;2023-07-20T10:49:57;2.40;;;0.40;;
29816;SDS011;16805;52.956;5.906;2023-07-20T10:52:23;0.98;;;0.40;;
29816;SDS011;16805;52.956;5.906;2023-07-20T10:54:49;0.60;;;0.30;;
29816;SDS011;16805;52.956;5.906;2023-07-20T10:57:21;0.50;;;0.20;;
29816;SDS011;16805;52.956;5.906;2023-07-20T10:59:49;1.10;;;0.30;;
29816;SDS011;16805;52.956;5.906;2023-07-20T11:02:17;0.20;;;0.20;;
29816;SDS011;16805;52.956;5.906;2023-07-20T11:04:45;1.15;;;0.40;;
29816;SDS011;16805;52.956;5.906;2023-07-20T11:07:16;0.50;;;0.30;;
29816;SDS011;16805;52.956;5.906;2023-07-20T11:09:43;0.63;;;0.40;;
29816;SDS011;16805;52.956;5.906;2023-07-20T11:12:09;0.57;;;0.40;;
29816;SDS011;16805;52.956;5.906;2023-07-20T11:14:43;0.60;;;0.30;;
29816;SDS011;16805;52.956;5.906;2023-07-20T11:17:19;2.00;;;0.30;;
29816;SDS011;16805;52.956;5.906;2023-07-20T11:19:55;0.20;;;0.20;;
29816;SDS011;16805;52.956;5.906;2023-07-20T11:22:21;0.52;;;0.20;;
29816;SDS011;16805;52.956;5.906;2023-07-20T11:24:47;0.35;;;0.22;;
29816;SDS011;16805;52.956;5.906;2023-07-20T11:27:16;0.57;;;0.20;;
29816;SDS011;16805;52.956;5.906;2023-07-20T11:29:45;0.68;;;0.52;;
29816;SDS011;16805;52.956;5.906;2023-07-20T11:32:10;0.30;;;0.20;;
29816;SDS011;16805;52.956;5.906;2023-07-20T11:34:36;1.65;;;0.50;;
29816;SDS011;16805;52.956;5.906;2023-07-20T11:37:02;0.43;;;0.40;;
29816;SDS011;16805;52.956;5.906;2023-07-20T11:39:28;0.73;;;0.40;;
29816;SDS011;16805;52.956;5.906;2023-07-20T11:41:55;0.30;;;0.20;;
29816;SDS011;16805;52.956;5.906;2023-07-20T11:44:22;0.88;;;0.30;;
29816;SDS011;16805;52.956;5.906;2023-07-20T11:47:03;1.02;;;0.30;;
29816;SDS011;16805;52.956;5.906;2023-07-20T11:49:35;0.50;;;0.30;;
29816;SDS011;16805;52.956;5.906;2023-07-20T11:52:08;0.75;;;0.32;;
29816;SDS011;16805;52.956;5.906;2023-07-20T11:54:35;1.20;;;0.30;;
29816;SDS011;16805;52.956;5.906;2023-07-20T11:57:04;2.15;;;0.40;;
29816;SDS011;16805;52.956;5.906;2023-07-20T11:59:30;1.05;;;0.38;;
29816;SDS011;16805;52.956;5.906;2023-07-20T12:01:56;0.77;;;0.45;;
29816;SDS011;16805;52.956;5.906;2023-07-20T12:04:31;1.35;;;0.35;;
29816;SDS011;16805;52.956;5.906;2023-07-20T12:06:57;0.80;;;0.25;;
29816;SDS011;16805;52.956;5.906;2023-07-20T12:09:24;0.75;;;0.30;;
29816;SDS011;16805;52.956;5.906;2023-07-20T12:11:49;0.40;;;0.30;;
29816;SDS011;16805;52.956;5.906;2023-07-20T12:14:15;0.30;;;0.30;;
29816;SDS011;16805;52.956;5.906;2023-07-20T12:16:41;0.63;;;0.32;;
29816;SDS011;16805;52.956;5.906;2023-07-20T12:19:09;0.85;;;0.30;;
29816;SDS011;16805;52.956;5.906;2023-07-20T12:21:38;1.13;;;0.40;;
29816;SDS011;16805;52.956;5.906;2023-07-20T12:24:08;2.13;;;0.30;;
29816;SDS011;16805;52.956;5.906;2023-07-20T12:26:35;1.63;;;0.50;;
29816;SDS011;16805;52.956;5.906;2023-07-20T12:29:01;1.10;;;0.25;;
29816;SDS011;16805;52.956;5.906;2023-07-20T12:31:33;0.63;;;0.20;;
29816;SDS011;16805;52.956;5.906;2023-07-20T12:34:01;0.30;;;0.15;;
29816;SDS011;16805;52.956;5.906;2023-07-20T12:36:27;0.88;;;0.32;;
29816;SDS011;16805;52.956;5.906;2023-07-20T12:38:52;0.75;;;0.30;;
29816;SDS011;16805;52.956;5.906;2023-07-20T12:41:18;0.52;;;0.40;;
29816;SDS011;16805;52.956;5.906;2023-07-20T12:43:44;2.50;;;0.35;;
29816;SDS011;16805;52.956;5.906;2023-07-20T12:46:10;1.27;;;0.30;;
29816;SDS011;16805;52.956;5.906;2023-07-20T12:48:38;0.40;;;0.30;;
29816;SDS011;16805;52.956;5.906;2023-07-20T12:51:06;0.60;;;0.30;;
29816;SDS011;16805;52.956;5.906;2023-07-20T12:53:32;0.95;;;0.30;;
29816;SDS011;16805;52.956;5.906;2023-07-20T12:55:58;0.77;;;0.30;;
29816;SDS011;16805;52.956;5.906;2023-07-20T12:58:25;1.48;;;0.30;;
29816;SDS011;16805;52.956;5.906;2023-07-20T13:00:51;1.00;;;0.32;;
29816;SDS011;16805;52.956;5.906;2023-07-20T13:03:17;0.82;;;0.70;;
29816;SDS011;16805;52.956;5.906;2023-07-20T13:05:44;0.25;;;0.25;;
29816;SDS011;16805;52.956;5.906;2023-07-20T13:08:13;0.40;;;0.38;;
29816;SDS011;16805;52.956;5.906;2023-07-20T13:10:39;0.45;;;0.30;;
29816;SDS011;16805;52.956;5.906;2023-07-20T13:13:05;0.20;;;0.20;;
29816;SDS011;16805;52.956;5.906;2023-07-20T13:15:31;1.65;;;0.55;;
29816;SDS011;16805;52.956;5.906;2023-07-20T13:17:58;0.95;;;0.30;;
29816;SDS011;16805;52.956;5.906;2023-07-20T13:20:25;1.38;;;0.35;;
29816;SDS011;16805;52.956;5.906;2023-07-20T13:22:51;1.48;;;0.38;;
29816;SDS011;16805;52.956;5.906;2023-07-20T13:25:17;1.42;;;0.30;;
29816;SDS011;16805;52.956;5.906;2023-07-20T13:27:43;4.82;;;0.40;;
29816;SDS011;16805;52.956;5.906;2023-07-20T13:30:09;1.10;;;0.25;;
29816;SDS011;16805;52.956;5.906;2023-07-20T13:32:41;0.20;;;0.20;;
29816;SDS011;16805;52.956;5.906;2023-07-20T13:35:13;0.80;;;0.30;;
29816;SDS011;16805;52.956;5.906;2023-07-20T13:37:38;0.30;;;0.20;;
29816;SDS011;16805;52.956;5.906;2023-07-20T13:40:05;0.60;;;0.32;;
29816;SDS011;16805;52.956;5.906;2023-07-20T13:42:31;1.17;;;0.30;;
29816;SDS011;16805;52.956;5.906;2023-07-20T13:44:57;0.77;;;0.38;;
29816;SDS011;16805;52.956;5.906;2023-07-20T13:47:23;0.40;;;0.40;;
29816;SDS011;16805;52.956;5.906;2023-07-20T13:49:49;0.40;;;0.20;;
29816;SDS011;16805;52.956;5.906;2023-07-20T13:52:15;0.35;;;0.32;;
29816;SDS011;16805;52.956;5.906;2023-07-20T13:54:40;0.65;;;0.30;;
29816;SDS011;16805;52.956;5.906;2023-07-20T13:57:06;0.30;;;0.30;;
29816;SDS011;16805;52.956;5.906;2023-07-20T13:59:32;0.57;;;0.32;;
29816;SDS011;16805;52.956;5.906;2023-07-20T14:01:57;0.45;;;0.40;;
29816;SDS011;16805;52.956;5.906;2023-07-20T14:04:23;0.75;;;0.40;;
29816;SDS011;16805;52.956;5.906;2023-07-20T14:06:49;0.93;;;0.50;;
29816;SDS011;16805;52.956;5.906;2023-07-20T14:09:15;0.45;;;0.30;;
29816;SDS011;16805;52.956;5.906;2023-07-20T14:11:40;1.48;;;0.75;;
29816;SDS011;16805;52.956;5.906;2023-07-20T14:14:06;0.32;;;0.30;;
29816;SDS011;16805;52.956;5.906;2023-07-20T14:16:32;0.45;;;0.30;;
29816;SDS011;16805;52.956;5.906;2023-07-20T14:18:58;0.47;;;0.40;;
29816;SDS011;16805;52.956;5.906;2023-07-20T14:21:24;0.45;;;0.45;;
29816;SDS011;16805;52.956;5.906;2023-07-20T14:23:50;0.32;;;0.30;;
29816;SDS011;16805;52.956;5.906;2023-07-20T14:26:20;0.50;;;0.50;;
29816;SDS011;16805;52.956;5.906;2023-07-20T14:28:46;0.40;;;0.35;;
29816;SDS011;16805;52.956;5.906;2023-07-20T14:31:11;0.20;;;0.20;;
29816;SDS011;16805;52.956;5.906;2023-07-20T14:33:37;1.20;;;0.40;;
29816;SDS011;16805;52.956;5.906;2023-07-20T14:36:03;0.30;;;0.30;;
29816;SDS011;16805;52.956;5.906;2023-07-20T14:38:30;0.63;;;0.40;;
29816;SDS011;16805;52.956;5.906;2023-07-20T14:40:56;0.73;;;0.40;;
29816;SDS011;16805;52.956;5.906;2023-07-20T14:43:22;0.55;;;0.43;;
29816;SDS011;16805;52.956;5.906;2023-07-20T14:45:48;2.25;;;0.50;;
29816;SDS011;16805;52.956;5.906;2023-07-20T14:48:13;5.15;;;0.57;;
29816;SDS011;16805;52.956;5.906;2023-07-20T14:50:39;1.00;;;0.40;;